Flight Track Log - Related Links

Times and Time Zones

All times are in EDT time to prevent confusion due to time zone crossing. See the JBU33 flight status page for this flight to view local times or setup timezone preferences in your user account.


Time Position Orientation Groundspeed Altitude Reporting Facility
EDT Latitude Longitude Course Direction KTS MPH feet Rate Location/Type
Sat 01:19:28 PM 44.4892 -73.3275 190° South 245 282 6,400  Level Boston Center
Sat 01:20:00 PM 44.1567 -73.2663 195° South  Level FlightAware Approximate
Sat 01:20:40 PM 44.4408 -73.3792 217° Southwest 264 304 9,700  Level Boston Center
Sat 01:21:00 PM 44.0787 -73.2955 195° South  Level FlightAware Approximate
Sat 01:21:41 PM 44.3364 -73.4094 192° South 299 344 11,500  Level Boston Center
Sat 01:22:00 PM 44.0003 -73.3222 194° South  Level FlightAware Approximate
Sat 01:22:53 PM 44.2300 -73.4367 190° South 352 405 15,000  Level Boston Center
Sat 01:23:00 PM 43.9217 -73.3483 193° South  Level FlightAware Approximate
Sat 01:23:54 PM 44.1089 -73.4664 190° South 368 423 18,100  Level Boston Center
Sat 01:24:00 PM 43.8292 -73.3611 190° South  Level Estimated
Sat 01:24:54 PM 44.0044 -73.4964 192° South 377 434 20,500  Level Boston Center
Sat 01:25:52 PM 43.9000 -73.5206 189° South 382 440 22,700 2,186 Climbing Boston Center
Sat 01:26:52 PM 43.7933 -73.5503 191° South 387 445 24,800 1,636 Climbing Boston Center
Sat 01:27:53 PM 43.6806 -73.5683 187° South 404 465 26,000 595 Climbing Boston Center
Sat 01:28:53 PM 43.5783 -73.5836 186° South 410 472 26,000  Level Boston Center
Sat 01:29:54 PM 43.4658 -73.5958 185° South 410 472 26,000  Level Boston Center
Sat 01:30:52 PM 43.3531 -73.6108 186° South 405 466 26,000  Level Boston Center
Sat 01:31:53 PM 43.2383 -73.6256 185° South 410 472 26,000  Level Boston Center
Sat 01:32:53 PM 43.1111 -73.6403 185° South 416 479 26,000  Level Boston Center
Sat 01:33:54 PM 42.9983 -73.6550 185° South 416 479 26,000  Level Boston Center
Sat 01:34:52 PM 42.8856 -73.6700 186° South 416 479 26,000  Level Boston Center
Sat 01:35:52 PM 42.7750 -73.6875 187° South 408 470 26,000  Level Boston Center
Sat 01:36:53 PM 42.6622 -73.7022 185° South 408 470 26,000  Level Boston Center
Sat 01:37:53 PM 42.5494 -73.7167 185° South 408 470 26,000  Level Boston Center
Sat 01:38:54 PM 42.4494 -73.7317 186° South 408 470 26,000  Level Boston Center
Sat 01:39:54 PM 42.3367 -73.7433 184° South 408 470 26,000  Level Boston Center
Sat 01:40:52 PM 42.2239 -73.7578 185° South 408 470 26,000  Level Boston Center
Sat 01:41:52 PM 42.1111 -73.7722 185° South 408 470 26,000  Level Boston Center
Sat 01:42:53 PM 42.0006 -73.7867 186° South 408 470 26,000  Level Boston Center
Sat 01:45:21 PM 41.7494 -73.8850 196° South 398 458 26,000 -231 Level New York Center
Sat 01:46:21 PM 41.6481 -73.9358 201° Southwest 388 447 25,200 -1,550 Descending New York Center
Sat 01:47:21 PM 41.5425 -73.9892 201° Southwest 375 432 22,900 -2,182 Descending New York Center
Sat 01:48:22 PM 41.4456 -74.0342 199° South 375 432 20,800 -1,438 Descending New York Center
Sat 01:49:22 PM 41.3425 -74.0706 195° South 375 432 20,000 -407 Descending New York Center
Sat 01:50:20 PM 41.2358 -74.0903 188° South 375 432 20,000  Level New York Center
Sat 01:51:21 PM 41.1292 -74.1042 186° South 386 444 20,000  Level New York Center
Sat 01:52:01 PM 41.0500 -74.1167 187° South 385 443 20,000 -240 Level New York TRACON
Sat 01:53:01 PM 40.9500 -74.1000 173° South 374 430 19,600 -900 Descending New York TRACON
Sat 01:54:01 PM 40.8500 -74.0833 173° South 342 394 18,200 -1,550 Descending New York TRACON
Sat 01:55:01 PM 40.7667 -74.0500 163° South 340 391 16,500 -1,700 Descending New York TRACON
Sat 01:56:01 PM 40.6667 -74.0000 159° South 338 389 14,800 -1,650 Descending New York TRACON
Sat 01:57:01 PM 40.5833 -73.9667 163° South 329 379 13,200 -950 Descending New York TRACON
Sat 01:58:01 PM 40.5000 -73.9333 163° South 319 367 12,900 -1,200 Descending New York TRACON
Sat 01:59:01 PM 40.4333 -73.9000 159° South 306 352 10,800 -2,150 Descending New York TRACON
Sat 02:00:01 PM 40.3500 -73.8500 155° Southeast 308 354 8,600 -2,100 Descending New York TRACON
Sat 02:01:01 PM 40.3167 -73.7500 114° Southeast 310 357 6,600 -1,950 Descending New York TRACON
Sat 02:02:01 PM 40.2833 -73.6500 114° Southeast 295 339 4,700 -1,429 Descending New York TRACON
Sat 02:03:07 PM 40.3000 -73.5500 78° East 263 303 3,600 -850 Descending New York TRACON
Sat 02:04:01 PM 40.3500 -73.5167 27° Northeast 211 243 3,000 -316 Descending New York TRACON
Sat 02:05:01 PM 40.4167 -73.4833 21° North 215 247 3,000  Level New York TRACON
Sat 02:06:07 PM 40.4667 -73.4833 360° North 210 242 3,000  Level New York TRACON
Sat 02:07:01 PM 40.5167 -73.5000 346° North 170 196 3,000  Level New York TRACON
Sat 02:08:01 PM 40.5500 -73.5500 311° West 170 196 3,000 -100 Level New York TRACON
Sat 02:09:01 PM 40.5667 -73.6000 294° West 168 193 2,800 -550 Descending New York TRACON
Sat 02:10:01 PM 40.6000 -73.6500 311° West 165 190 1,900 -850 Descending New York TRACON
Sat 02:11:01 PM 40.6167 -73.7000 294° West 136 157 1,100 -700 Descending New York TRACON
Sat 02:12:01 PM 40.6333 -73.7333 303° West 121 139 500 -600 Descending New York TRACON

Login

Don't have an account? Register now (free) for customized features, flight alerts, and more!